Time;durP1;ratioP1;P1;durP2;ratioP2;P2;SDS_P1;SDS_P2;PMS_P1;PMS_P2;Temp;Humidity;BMP_temperature;BMP_pressure;BME280_temperature;BME280_humidity;BME280_pressure;Samples;Min_cycle;Max_cycle;Signal;HPM_P1;HPM_P2
2021/03/30 00:01:05;;;;;;;7.60;3.13;;;;;;;;;;5052999;28;20029;-72
2021/03/30 00:03:31;;;;;;;5.32;3.30;;;;;;;;;;5057100;28;20504;-72
2021/03/30 00:05:56;;;;;;;7.93;3.40;;;;;;;;;;5091900;28;20095;-72
2021/03/30 00:08:21;;;;;;;6.95;3.25;;;;;;;;;;5091626;28;20382;-72
2021/03/30 00:10:48;;;;;;;6.18;4.10;;;;;;;;;;5091375;28;20040;-71
2021/03/30 00:13:13;;;;;;;9.65;3.05;;;;;;;;;;5092901;28;20502;-72
2021/03/30 00:15:38;;;;;;;5.10;3.20;;;;;;;;;;5092900;28;20028;-71
2021/03/30 00:18:06;;;;;;;6.88;3.17;;;;;;;;;;5092919;28;20026;-71
2021/03/30 00:20:31;;;;;;;6.03;3.47;;;;;;;;;;5092803;28;20031;-73
2021/03/30 00:22:57;;;;;;;5.45;3.50;;;;;;;;;;5092747;28;20024;-72
2021/03/30 00:25:22;;;;;;;5.10;3.05;;;;;;;;;;5094561;28;20085;-72
2021/03/30 00:27:47;;;;;;;6.70;3.13;;;;;;;;;;5096602;28;20069;-72
2021/03/30 00:30:15;;;;;;;6.43;3.30;;;;;;;;;;5096415;28;20051;-74
2021/03/30 00:32:41;;;;;;;7.82;3.35;;;;;;;;;;5096393;28;20081;-74
2021/03/30 00:35:07;;;;;;;5.43;3.05;;;;;;;;;;5096284;28;20016;-73
2021/03/30 00:37:34;;;;;;;4.25;2.80;;;;;;;;;;5096267;28;20030;-74
2021/03/30 00:40:02;;;;;;;5.13;3.08;;;;;;;;;;5096195;28;20016;-73
2021/03/30 00:42:28;;;;;;;5.75;3.40;;;;;;;;;;5096170;28;20020;-73
2021/03/30 00:44:53;;;;;;;5.45;3.28;;;;;;;;;;5096148;28;20122;-73
2021/03/30 00:47:19;;;;;;;4.90;3.08;;;;;;;;;;5096135;28;20020;-73
2021/03/30 00:49:47;;;;;;;5.68;3.15;;;;;;;;;;5096178;28;20020;-72
2021/03/30 00:52:14;;;;;;;6.55;3.38;;;;;;;;;;5095991;28;20051;-72
2021/03/30 00:54:40;;;;;;;5.28;3.22;;;;;;;;;;5096032;28;20020;-72
2021/03/30 00:57:06;;;;;;;10.25;3.67;;;;;;;;;;5095873;28;20452;-72
2021/03/30 00:59:33;;;;;;;6.70;3.50;;;;;;;;;;5095756;28;20012;-72
2021/03/30 01:01:59;;;;;;;9.35;3.60;;;;;;;;;;5095839;28;20059;-72
2021/03/30 01:04:27;;;;;;;7.13;3.60;;;;;;;;;;5095845;28;20112;-74
2021/03/30 01:06:52;;;;;;;7.13;3.67;;;;;;;;;;5095654;28;20024;-74
2021/03/30 01:09:20;;;;;;;8.65;3.17;;;;;;;;;;5096034;28;20081;-74
2021/03/30 01:12:05;;;;;;;6.57;3.50;;;;;;;;;;5095520;28;20433;-74
2021/03/30 01:14:30;;;;;;;7.55;3.50;;;;;;;;;;5095634;28;20016;-74
2021/03/30 01:17:12;;;;;;;7.17;3.13;;;;;;;;;;5095706;28;20416;-74
2021/03/30 01:19:56;;;;;;;4.38;3.35;;;;;;;;;;5095616;28;20258;-74
2021/03/30 01:22:27;;;;;;;8.02;3.65;;;;;;;;;;5096073;28;20024;-74
2021/03/30 01:24:58;;;;;;;8.00;3.20;;;;;;;;;;5096240;28;20024;-74
2021/03/30 01:27:33;;;;;;;10.05;3.38;;;;;;;;;;5095405;28;20106;-73
2021/03/30 01:30:00;;;;;;;8.70;3.07;;;;;;;;;;5095287;28;20352;-73
2021/03/30 01:32:26;;;;;;;6.35;3.60;;;;;;;;;;5094306;28;20390;-73
2021/03/30 01:34:54;;;;;;;4.75;3.17;;;;;;;;;;5095561;28;20012;-73
2021/03/30 01:37:20;;;;;;;6.55;3.50;;;;;;;;;;5094704;28;20012;-74
2021/03/30 01:39:50;;;;;;;6.03;3.30;;;;;;;;;;5095301;28;20039;-74
2021/03/30 01:42:19;;;;;;;5.80;3.30;;;;;;;;;;5095093;28;20042;-73
2021/03/30 01:44:45;;;;;;;7.22;2.92;;;;;;;;;;5095119;28;20099;-73
2021/03/30 01:47:10;;;;;;;8.07;3.55;;;;;;;;;;5094054;28;20124;-73
2021/03/30 01:49:38;;;;;;;6.90;3.58;;;;;;;;;;5095082;28;20040;-73
2021/03/30 01:52:03;;;;;;;8.32;3.25;;;;;;;;;;5094837;28;20024;-74
2021/03/30 01:54:30;;;;;;;7.50;3.55;;;;;;;;;;5094940;28;20107;-74
2021/03/30 01:56:56;;;;;;;6.95;3.08;;;;;;;;;;5093841;28;20031;-75
2021/03/30 01:59:24;;;;;;;7.70;3.65;;;;;;;;;;5094730;28;20107;-72
2021/03/30 02:01:53;;;;;;;5.15;3.25;;;;;;;;;;5094807;28;20030;-73
2021/03/30 02:04:20;;;;;;;4.90;3.38;;;;;;;;;;5094597;28;20043;-72
2021/03/30 02:06:46;;;;;;;7.25;3.60;;;;;;;;;;5094561;28;20023;-72
2021/03/30 02:09:19;;;;;;;7.90;3.30;;;;;;;;;;5094425;28;20556;-72
2021/03/30 02:11:53;;;;;;;7.82;3.42;;;;;;;;;;5094267;28;20056;-73
2021/03/30 02:14:18;;;;;;;4.63;3.42;;;;;;;;;;5094294;28;20042;-72
2021/03/30 02:16:54;;;;;;;8.60;3.30;;;;;;;;;;5094153;28;20024;-72
2021/03/30 02:19:23;;;;;;;5.45;3.22;;;;;;;;;;5094116;28;20469;-72
2021/03/30 02:21:53;;;;;;;6.22;2.92;;;;;;;;;;5092865;28;20446;-73
2021/03/30 02:24:19;;;;;;;6.03;3.65;;;;;;;;;;5093953;28;20028;-73
2021/03/30 02:26:45;;;;;;;4.10;3.05;;;;;;;;;;5093791;28;20106;-73
2021/03/30 02:29:15;;;;;;;5.05;3.42;;;;;;;;;;5093921;28;20109;-73
2021/03/30 02:31:41;;;;;;;7.35;3.10;;;;;;;;;;5092687;28;20162;-73
2021/03/30 02:34:07;;;;;;;4.40;3.13;;;;;;;;;;5093843;28;20020;-73
2021/03/30 02:36:33;;;;;;;6.60;3.20;;;;;;;;;;5093766;28;20081;-72
2021/03/30 02:38:59;;;;;;;5.85;3.38;;;;;;;;;;5092979;28;20031;-72
2021/03/30 02:41:26;;;;;;;3.95;3.00;;;;;;;;;;5094282;28;20028;-73
2021/03/30 02:43:56;;;;;;;5.38;3.13;;;;;;;;;;5094169;28;20019;-73
2021/03/30 02:46:21;;;;;;;5.20;3.10;;;;;;;;;;5094142;28;20359;-76
2021/03/30 02:48:50;;;;;;;11.25;3.80;;;;;;;;;;5093228;28;20110;-76
2021/03/30 02:51:15;;;;;;;10.68;3.58;;;;;;;;;;5093927;28;20020;-77
2021/03/30 02:53:41;;;;;;;8.38;3.10;;;;;;;;;;5093704;28;20012;-77
2021/03/30 02:56:07;;;;;;;7.10;3.17;;;;;;;;;;5093493;28;20590;-76
2021/03/30 02:58:34;;;;;;;5.53;3.65;;;;;;;;;;5093600;28;20024;-76
2021/03/30 03:01:00;;;;;;;6.25;3.47;;;;;;;;;;5093878;28;20469;-76
2021/03/30 03:03:32;;;;;;;7.78;3.70;;;;;;;;;;5093409;28;20027;-76
2021/03/30 03:06:01;;;;;;;5.43;3.33;;;;;;;;;;5093738;28;20027;-73
2021/03/30 03:08:30;;;;;;;6.25;3.35;;;;;;;;;;5093446;28;20566;-73
2021/03/30 03:10:56;;;;;;;6.88;3.30;;;;;;;;;;5093166;28;20048;-73
2021/03/30 03:13:22;;;;;;;7.00;3.70;;;;;;;;;;5093399;28;20054;-73
2021/03/30 03:15:47;;;;;;;7.30;3.10;;;;;;;;;;5093271;28;20031;-73
2021/03/30 03:18:13;;;;;;;5.30;3.30;;;;;;;;;;5093382;28;20077;-72
2021/03/30 03:20:39;;;;;;;10.50;3.78;;;;;;;;;;5093319;28;20030;-72
2021/03/30 03:23:05;;;;;;;12.90;4.18;;;;;;;;;;5093336;28;20020;-74
2021/03/30 03:25:30;;;;;;;10.80;3.92;;;;;;;;;;5093310;28;20089;-75
2021/03/30 03:27:59;;;;;;;7.65;3.97;;;;;;;;;;5093586;28;20030;-74
2021/03/30 03:30:25;;;;;;;8.60;3.92;;;;;;;;;;5094109;28;20105;-74
2021/03/30 03:32:50;;;;;;;10.45;4.03;;;;;;;;;;5093054;28;20126;-73
2021/03/30 03:35:15;;;;;;;9.98;4.13;;;;;;;;;;5093169;28;20425;-73
2021/03/30 03:37:43;;;;;;;8.27;4.00;;;;;;;;;;5093198;28;20012;-74
2021/03/30 03:40:09;;;;;;;6.05;4.00;;;;;;;;;;5093117;28;20031;-74
2021/03/30 03:42:38;;;;;;;6.75;4.00;;;;;;;;;;5093113;28;20016;-74
2021/03/30 03:45:04;;;;;;;5.50;3.72;;;;;;;;;;5093047;28;20008;-73
2021/03/30 03:47:32;;;;;;;7.63;3.70;;;;;;;;;;5091930;28;20024;-73
2021/03/30 03:49:57;;;;;;;6.13;3.60;;;;;;;;;;5092936;28;20028;-73
2021/03/30 03:52:23;;;;;;;10.77;4.10;;;;;;;;;;5093073;28;20095;-73
2021/03/30 03:54:49;;;;;;;9.23;4.13;;;;;;;;;;5091862;28;20570;-74
2021/03/30 03:57:17;;;;;;;5.78;3.72;;;;;;;;;;5091859;28;20085;-74
2021/03/30 03:59:46;;;;;;;7.95;3.95;;;;;;;;;;5094859;28;20032;-74
2021/03/30 04:02:38;;;;;;;9.10;4.15;;;;;;;;;;5096769;28;20026;-74
2021/03/30 04:05:03;;;;;;;10.55;3.83;;;;;;;;;;5094468;28;20035;-74
2021/03/30 04:07:31;;;;;;;10.20;4.30;;;;;;;;;;5096839;28;20463;-74
2021/03/30 04:09:57;;;;;;;6.93;4.20;;;;;;;;;;5096370;28;20073;-73
2021/03/30 04:12:25;;;;;;;9.57;4.22;;;;;;;;;;5096813;28;20443;-74
2021/03/30 04:14:51;;;;;;;13.35;4.60;;;;;;;;;;5096532;28;20103;-74
2021/03/30 04:17:17;;;;;;;9.93;4.90;;;;;;;;;;5095550;28;20290;-74
2021/03/30 04:19:42;;;;;;;6.97;3.97;;;;;;;;;;5096636;28;20028;-75
2021/03/30 04:22:10;;;;;;;12.00;4.43;;;;;;;;;;5096595;28;20016;-75
2021/03/30 04:24:35;;;;;;;8.60;4.45;;;;;;;;;;5096569;28;20047;-75
2021/03/30 04:27:00;;;;;;;9.80;4.20;;;;;;;;;;5096482;28;20027;-74
2021/03/30 04:29:26;;;;;;;8.18;4.53;;;;;;;;;;5096359;28;20028;-74
2021/03/30 04:31:56;;;;;;;11.55;4.45;;;;;;;;;;5096253;28;20133;-75
2021/03/30 04:34:24;;;;;;;8.10;4.05;;;;;;;;;;5096481;28;20534;-74
2021/03/30 04:36:49;;;;;;;9.70;4.88;;;;;;;;;;5096175;28;20447;-73
2021/03/30 04:39:14;;;;;;;6.05;4.10;;;;;;;;;;5096171;28;20107;-72
2021/03/30 04:41:39;;;;;;;9.07;4.43;;;;;;;;;;5096106;28;20166;-73
2021/03/30 04:44:10;;;;;;;8.45;4.43;;;;;;;;;;5095997;28;20133;-72
2021/03/30 04:46:38;;;;;;;9.23;4.50;;;;;;;;;;5096216;28;20029;-72
2021/03/30 04:49:03;;;;;;;7.45;4.00;;;;;;;;;;5096289;28;20027;-72
2021/03/30 04:51:28;;;;;;;7.68;4.45;;;;;;;;;;5096122;28;20024;-73
2021/03/30 04:53:54;;;;;;;7.90;4.07;;;;;;;;;;5096055;28;20028;-72
2021/03/30 04:56:21;;;;;;;12.82;4.40;;;;;;;;;;5096040;28;20020;-73
2021/03/30 04:58:47;;;;;;;8.63;4.60;;;;;;;;;;5096023;28;20024;-73
2021/03/30 05:01:12;;;;;;;6.82;4.28;;;;;;;;;;5095824;28;20472;-72
2021/03/30 05:03:37;;;;;;;8.10;4.68;;;;;;;;;;5095526;28;20151;-72
2021/03/30 05:06:02;;;;;;;7.13;4.43;;;;;;;;;;5095377;28;20016;-72
2021/03/30 05:08:30;;;;;;;9.15;4.50;;;;;;;;;;5094732;28;20028;-74
2021/03/30 05:10:59;;;;;;;9.02;4.60;;;;;;;;;;5093756;28;20048;-73
2021/03/30 05:13:24;;;;;;;9.85;4.55;;;;;;;;;;5096449;28;20012;-80
2021/03/30 05:15:49;;;;;;;9.25;4.40;;;;;;;;;;5095800;28;20012;-74
2021/03/30 05:18:15;;;;;;;9.13;5.03;;;;;;;;;;5095952;28;20113;-75
2021/03/30 05:20:40;;;;;;;8.27;4.38;;;;;;;;;;5095678;28;20325;-74
2021/03/30 05:23:05;;;;;;;11.05;4.35;;;;;;;;;;5095532;28;20111;-75
2021/03/30 05:25:31;;;;;;;7.78;4.38;;;;;;;;;;5095737;28;20043;-76
2021/03/30 05:27:56;;;;;;;9.48;4.60;;;;;;;;;;5085530;28;20025;-76
2021/03/30 05:30:21;;;;;;;8.18;4.45;;;;;;;;;;5062142;28;20029;-73
2021/03/30 05:32:47;;;;;;;8.60;4.32;;;;;;;;;;5074180;28;20062;-74
2021/03/30 05:35:15;;;;;;;8.02;4.80;;;;;;;;;;5074894;28;20017;-75
2021/03/30 05:37:40;;;;;;;11.88;4.25;;;;;;;;;;5074979;28;20013;-74
2021/03/30 05:40:10;;;;;;;8.38;4.70;;;;;;;;;;5074954;28;20027;-74
2021/03/30 05:42:38;;;;;;;9.68;4.10;;;;;;;;;;5074951;28;20451;-74
2021/03/30 05:45:03;;;;;;;6.90;4.18;;;;;;;;;;5075211;28;20074;-74
2021/03/30 05:47:29;;;;;;;8.45;4.47;;;;;;;;;;5073890;28;20017;-74
2021/03/30 05:49:54;;;;;;;7.20;4.38;;;;;;;;;;5074898;28;20055;-75
2021/03/30 05:53:02;;;;;;;9.68;5.00;;;;;;;;;;5074832;28;20035;-77
2021/03/30 05:55:17;;;;;;;;;;;;;;;;;;5074880;28;20055;-81
2021/03/30 05:57:43;;;;;;;9.20;4.18;;;;;;;;;;5074858;28;19904;-75
2021/03/30 06:00:12;;;;;;;8.88;4.82;;;;;;;;;;5071590;28;20025;-77
2021/03/30 06:02:42;;;;;;;7.68;4.60;;;;;;;;;;5074076;28;20119;-82
2021/03/30 06:05:11;;;;;;;8.27;4.95;;;;;;;;;;5058811;28;20131;-81
2021/03/30 06:07:39;;;;;;;10.02;4.72;;;;;;;;;;5068489;28;20105;-78
2021/03/30 06:10:09;;;;;;;9.25;4.85;;;;;;;;;;5072706;28;20047;-78
2021/03/30 06:12:34;;;;;;;10.32;4.70;;;;;;;;;;5074788;28;20341;-79
2021/03/30 06:15:04;;;;;;;8.32;4.85;;;;;;;;;;5074264;28;20108;-77
2021/03/30 06:17:38;;;;;;;11.23;4.80;;;;;;;;;;5073911;28;20017;-77
2021/03/30 06:20:04;;;;;;;7.47;4.75;;;;;;;;;;5075923;28;20429;-81
2021/03/30 06:22:31;;;;;;;12.20;5.00;;;;;;;;;;5091011;28;20030;-77
2021/03/30 06:24:59;;;;;;;7.75;4.60;;;;;;;;;;5079557;28;20052;-75
2021/03/30 06:27:26;;;;;;;11.25;4.75;;;;;;;;;;5076824;28;20029;-77
2021/03/30 06:29:52;;;;;;;9.98;4.40;;;;;;;;;;5090288;28;20420;-76
2021/03/30 06:32:19;;;;;;;12.55;4.68;;;;;;;;;;5088743;28;20051;-75
2021/03/30 06:34:46;;;;;;;9.50;4.57;;;;;;;;;;5087398;28;20020;-76
2021/03/30 06:37:43;;;;;;;8.32;4.55;;;;;;;;;;5065545;28;20025;-76
2021/03/30 06:40:09;;;;;;;7.18;4.28;;;;;;;;;;5045416;28;20048;-82
2021/03/30 06:42:41;;;;;;;8.68;4.88;;;;;;;;;;5070852;28;20452;-81
2021/03/30 06:45:12;;;;;;;10.13;4.45;;;;;;;;;;5071796;28;20024;-73
2021/03/30 06:47:37;;;;;;;9.10;5.35;;;;;;;;;;5070761;28;20020;-75
2021/03/30 06:50:05;;;;;;;9.75;5.30;;;;;;;;;;5073123;28;20012;-74
2021/03/30 06:52:33;;;;;;;12.07;4.88;;;;;;;;;;5072724;28;20460;-75
2021/03/30 06:55:05;;;;;;;14.95;4.85;;;;;;;;;;5073262;28;20012;-78
2021/03/30 06:57:40;;;;;;;8.77;4.25;;;;;;;;;;5073429;28;20016;-74
2021/03/30 07:00:06;;;;;;;7.60;4.40;;;;;;;;;;5073078;28;20013;-73
2021/03/30 07:02:34;;;;;;;6.85;4.63;;;;;;;;;;5072881;28;20115;-74
2021/03/30 07:05:01;;;;;;;9.65;4.43;;;;;;;;;;5074771;28;20051;-74
2021/03/30 07:07:28;;;;;;;7.53;4.32;;;;;;;;;;5073738;28;20021;-75
2021/03/30 07:09:54;;;;;;;9.18;4.88;;;;;;;;;;5067120;28;20024;-74
2021/03/30 07:12:23;;;;;;;8.18;4.80;;;;;;;;;;5058135;28;20044;-76
2021/03/30 07:14:50;;;;;;;8.93;4.45;;;;;;;;;;5053097;28;20020;-75
2021/03/30 07:17:23;;;;;;;6.90;4.07;;;;;;;;;;5053174;28;20035;-75
2021/03/30 07:19:49;;;;;;;8.75;4.03;;;;;;;;;;5053297;28;20035;-75
2021/03/30 07:22:15;;;;;;;9.00;4.15;;;;;;;;;;5053095;28;20386;-76
2021/03/30 07:24:53;;;;;;;8.85;4.30;;;;;;;;;;5052101;28;20159;-74
2021/03/30 07:27:20;;;;;;;7.53;4.05;;;;;;;;;;5053040;28;20016;-77
2021/03/30 07:29:46;;;;;;;11.30;4.57;;;;;;;;;;5085022;28;20441;-75
2021/03/30 07:32:24;;;;;;;12.85;4.55;;;;;;;;;;5072826;28;20024;-76
2021/03/30 07:35:01;;;;;;;8.85;4.40;;;;;;;;;;5072272;28;20044;-76
2021/03/30 07:37:45;;;;;;;10.45;4.53;;;;;;;;;;5073159;28;20043;-76
2021/03/30 07:40:16;;;;;;;8.63;4.05;;;;;;;;;;5072003;28;20020;-75
2021/03/30 07:42:45;;;;;;;6.35;3.97;;;;;;;;;;5073153;28;20195;-75
2021/03/30 07:45:14;;;;;;;5.00;3.88;;;;;;;;;;5073221;28;20016;-76
2021/03/30 07:47:40;;;;;;;8.27;4.13;;;;;;;;;;5072037;28;20021;-76
2021/03/30 07:50:07;;;;;;;9.02;4.30;;;;;;;;;;5073357;28;20074;-76
2021/03/30 07:52:37;;;;;;;8.50;4.70;;;;;;;;;;5072941;28;20024;-76
2021/03/30 07:55:21;;;;;;;8.57;4.18;;;;;;;;;;5073080;28;20031;-76
2021/03/30 07:57:56;;;;;;;9.10;4.30;;;;;;;;;;5073286;28;20369;-76
2021/03/30 08:00:33;;;;;;;7.43;4.07;;;;;;;;;;5073027;28;20024;-76
2021/03/30 08:03:03;;;;;;;8.80;4.40;;;;;;;;;;5071940;28;20027;-76
2021/03/30 08:05:31;;;;;;;16.00;4.57;;;;;;;;;;5071926;28;20013;-76
2021/03/30 08:07:57;;;;;;;10.65;4.35;;;;;;;;;;5072906;28;20017;-76
2021/03/30 08:10:35;;;;;;;10.82;4.03;;;;;;;;;;5072905;28;20440;-76
2021/03/30 08:13:21;;;;;;;12.27;4.30;;;;;;;;;;5091215;28;20028;-76
2021/03/30 08:15:47;;;;;;;8.00;4.18;;;;;;;;;;5093036;28;20039;-76
2021/03/30 08:18:13;;;;;;;10.68;3.75;;;;;;;;;;5092930;28;20360;-76
2021/03/30 08:20:53;;;;;;;9.18;3.85;;;;;;;;;;5092904;28;20020;-78
2021/03/30 08:23:18;;;;;;;8.32;4.00;;;;;;;;;;5092867;28;20020;-75
2021/03/30 08:25:47;;;;;;;5.07;3.67;;;;;;;;;;5092249;28;20116;-77
2021/03/30 08:28:31;;;;;;;9.48;4.25;;;;;;;;;;5091332;28;20065;-75
2021/03/30 08:30:57;;;;;;;7.50;4.20;;;;;;;;;;5071065;28;20033;-77
2021/03/30 08:33:23;;;;;;;8.68;3.95;;;;;;;;;;5072517;28;20032;-77
2021/03/30 08:35:48;;;;;;;6.55;3.67;;;;;;;;;;5074947;28;20096;-76
2021/03/30 08:38:32;;;;;;;7.25;3.90;;;;;;;;;;5072402;28;20186;-76
2021/03/30 08:40:58;;;;;;;8.10;4.20;;;;;;;;;;5072314;28;20116;-76
2021/03/30 08:43:25;;;;;;;7.95;4.30;;;;;;;;;;5072490;28;20103;-76
2021/03/30 08:46:00;;;;;;;8.27;3.88;;;;;;;;;;5073065;28;20104;-76
2021/03/30 08:48:33;;;;;;;7.97;4.25;;;;;;;;;;5076019;28;20507;-76
2021/03/30 08:50:59;;;;;;;7.65;3.90;;;;;;;;;;5071575;28;20090;-77
2021/03/30 08:53:29;;;;;;;8.35;3.80;;;;;;;;;;5070215;28;20172;-77
2021/03/30 08:55:54;;;;;;;7.38;3.20;;;;;;;;;;5073669;28;20074;-75
2021/03/30 08:58:24;;;;;;;8.57;3.53;;;;;;;;;;5075955;28;20020;-76
2021/03/30 09:00:49;;;;;;;7.75;3.58;;;;;;;;;;5068107;28;20031;-77
2021/03/30 09:03:14;;;;;;;10.63;3.70;;;;;;;;;;5078364;28;20107;-75
2021/03/30 09:05:43;;;;;;;5.00;2.83;;;;;;;;;;5096134;28;20348;-74
2021/03/30 09:08:12;;;;;;;6.10;3.53;;;;;;;;;;5085544;28;20028;-75
2021/03/30 09:10:37;;;;;;;6.32;3.33;;;;;;;;;;5089855;28;20051;-75
2021/03/30 09:13:12;;;;;;;8.60;3.30;;;;;;;;;;5079038;28;20016;-75
2021/03/30 09:15:38;;;;;;;14.77;3.33;;;;;;;;;;5090010;28;20044;-75
2021/03/30 09:18:03;;;;;;;10.68;3.42;;;;;;;;;;5085018;28;20521;-76
2021/03/30 09:20:33;;;;;;;6.75;3.50;;;;;;;;;;5088437;28;20461;-75
2021/03/30 09:23:01;;;;;;;9.13;3.20;;;;;;;;;;5077485;28;20055;-76
2021/03/30 09:25:39;;;;;;;5.75;3.05;;;;;;;;;;5082462;28;20020;-75
2021/03/30 09:28:05;;;;;;;4.82;2.67;;;;;;;;;;5079691;28;20027;-75
2021/03/30 09:30:30;;;;;;;4.88;2.70;;;;;;;;;;5082112;28;20024;-76
2021/03/30 09:32:56;;;;;;;5.72;2.97;;;;;;;;;;5080218;28;20442;-75
2021/03/30 09:35:25;;;;;;;4.10;2.90;;;;;;;;;;5091978;28;20078;-77
2021/03/30 09:37:58;;;;;;;6.13;2.50;;;;;;;;;;5082987;28;20055;-75
2021/03/30 09:40:25;;;;;;;6.30;2.67;;;;;;;;;;5082854;28;20029;-75
2021/03/30 09:42:51;;;;;;;6.43;2.60;;;;;;;;;;5073542;28;20020;-74
2021/03/30 09:45:24;;;;;;;6.63;2.78;;;;;;;;;;5082387;28;20012;-74
2021/03/30 09:47:52;;;;;;;8.43;2.58;;;;;;;;;;5080898;28;20020;-74
2021/03/30 09:50:20;;;;;;;4.60;2.67;;;;;;;;;;5083906;28;20017;-73
2021/03/30 09:52:45;;;;;;;6.22;2.65;;;;;;;;;;5090029;28;20012;-73
2021/03/30 09:55:10;;;;;;;4.30;2.10;;;;;;;;;;5078058;28;20086;-74
2021/03/30 09:57:36;;;;;;;4.07;2.22;;;;;;;;;;5088996;28;20058;-74
2021/03/30 10:00:01;;;;;;;7.15;2.30;;;;;;;;;;5083067;28;20024;-74
2021/03/30 10:02:28;;;;;;;3.25;2.20;;;;;;;;;;5082275;28;20081;-74
2021/03/30 10:04:54;;;;;;;3.70;2.20;;;;;;;;;;5091176;28;20419;-75
2021/03/30 10:07:20;;;;;;;4.18;1.98;;;;;;;;;;5074262;28;20052;-74
2021/03/30 10:10:04;;;;;;;3.80;2.20;;;;;;;;;;5074087;28;20044;-74
2021/03/30 10:12:36;;;;;;;6.00;2.28;;;;;;;;;;5074185;28;20048;-74
2021/03/30 10:15:02;;;;;;;5.72;2.15;;;;;;;;;;5074414;28;20023;-73
2021/03/30 10:17:31;;;;;;;5.13;2.35;;;;;;;;;;5074221;28;20021;-74
2021/03/30 10:19:59;;;;;;;7.50;2.30;;;;;;;;;;5074314;28;20047;-74
2021/03/30 10:22:28;;;;;;;5.32;1.92;;;;;;;;;;5074383;28;20107;-74
2021/03/30 10:25:05;;;;;;;4.30;2.28;;;;;;;;;;5074377;28;20444;-74
2021/03/30 10:27:31;;;;;;;8.25;2.53;;;;;;;;;;5074311;28;20046;-74
2021/03/30 10:29:56;;;;;;;4.27;1.77;;;;;;;;;;5074073;28;20041;-74
2021/03/30 10:32:21;;;;;;;5.35;2.47;;;;;;;;;;5074057;28;20274;-74
2021/03/30 10:34:47;;;;;;;5.30;2.70;;;;;;;;;;5073852;28;20017;-74
2021/03/30 10:37:14;;;;;;;8.18;2.30;;;;;;;;;;5074358;28;20031;-74
2021/03/30 10:39:44;;;;;;;3.83;2.33;;;;;;;;;;5074242;28;20145;-74
2021/03/30 10:42:13;;;;;;;5.95;2.40;;;;;;;;;;5074304;28;20026;-74
2021/03/30 10:44:42;;;;;;;6.50;2.40;;;;;;;;;;5074294;28;20468;-74
2021/03/30 10:47:32;;;;;;;5.25;2.45;;;;;;;;;;5072339;28;20021;-74
2021/03/30 10:49:58;;;;;;;5.25;2.30;;;;;;;;;;5062694;28;20124;-73
2021/03/30 10:52:26;;;;;;;5.03;2.38;;;;;;;;;;5073905;28;20411;-75
2021/03/30 10:54:52;;;;;;;5.35;2.50;;;;;;;;;;5074040;28;20013;-75
2021/03/30 10:57:26;;;;;;;3.78;2.08;;;;;;;;;;5088463;28;20028;-75
2021/03/30 10:59:54;;;;;;;3.50;2.30;;;;;;;;;;5079593;28;20020;-74
2021/03/30 11:02:20;;;;;;;3.83;1.85;;;;;;;;;;5064519;28;20088;-75
2021/03/30 11:04:47;;;;;;;2.63;1.77;;;;;;;;;;5085203;28;20020;-75
2021/03/30 11:07:12;;;;;;;3.42;1.80;;;;;;;;;;5088490;28;20098;-75
2021/03/30 11:09:38;;;;;;;4.93;1.57;;;;;;;;;;5085477;28;20075;-75
2021/03/30 11:12:03;;;;;;;4.38;1.67;;;;;;;;;;5073567;28;20075;-75
2021/03/30 11:14:29;;;;;;;4.90;1.55;;;;;;;;;;5073818;28;20478;-73
2021/03/30 11:16:56;;;;;;;11.13;1.80;;;;;;;;;;5073803;28;20031;-73
2021/03/30 11:19:23;;;;;;;4.10;1.60;;;;;;;;;;5073190;28;20776;-74
2021/03/30 11:21:51;;;;;;;2.67;1.55;;;;;;;;;;5073664;28;20016;-73
2021/03/30 11:24:18;;;;;;;2.30;1.40;;;;;;;;;;5073807;28;20034;-74
2021/03/30 11:26:46;;;;;;;4.60;1.42;;;;;;;;;;5073751;28;20031;-74
2021/03/30 11:32:39;;;;;;;3.30;1.45;;;;;;;;;;5076800;28;20021;-75
2021/03/30 11:34:46;;;;;;;3.05;1.48;;;;;;;;;;5066309;28;20032;-75
2021/03/30 11:39:45;;;;;;;2.35;1.30;;;;;;;;;;5073688;28;20104;-74
2021/03/30 11:42:10;;;;;;;3.78;1.60;;;;;;;;;;5073417;28;20025;-75
2021/03/30 11:44:36;;;;;;;4.53;1.40;;;;;;;;;;5073487;28;20027;-75
2021/03/30 11:47:01;;;;;;;2.38;1.20;;;;;;;;;;5073363;28;20035;-75
2021/03/30 11:49:27;;;;;;;2.83;1.67;;;;;;;;;;5073378;28;20035;-75
2021/03/30 11:51:52;;;;;;;3.08;1.40;;;;;;;;;;5073310;28;20030;-75
2021/03/30 11:54:17;;;;;;;3.23;1.43;;;;;;;;;;5073443;28;20063;-75
2021/03/30 11:56:42;;;;;;;2.90;1.20;;;;;;;;;;5067048;28;20024;-75
2021/03/30 11:59:10;;;;;;;2.23;1.37;;;;;;;;;;5053310;28;20412;-76
2021/03/30 12:01:35;;;;;;;3.35;1.67;;;;;;;;;;5070524;28;20042;-75
2021/03/30 12:04:01;;;;;;;2.70;1.37;;;;;;;;;;5073413;28;20108;-75
2021/03/30 12:06:26;;;;;;;2.57;1.00;;;;;;;;;;5073099;28;20075;-75
2021/03/30 12:08:51;;;;;;;2.53;1.30;;;;;;;;;;5071953;28;20021;-75
2021/03/30 12:11:16;;;;;;;3.23;1.47;;;;;;;;;;5061774;28;20469;-74
2021/03/30 12:13:42;;;;;;;4.13;1.20;;;;;;;;;;5064230;28;20106;-75
2021/03/30 12:16:07;;;;;;;2.17;1.47;;;;;;;;;;5073375;28;20035;-75
2021/03/30 12:18:33;;;;;;;2.05;1.10;;;;;;;;;;5073061;28;20107;-75
2021/03/30 12:21:00;;;;;;;2.63;1.08;;;;;;;;;;5074533;28;20064;-75
2021/03/30 12:23:28;;;;;;;1.50;1.00;;;;;;;;;;5077011;28;20009;-76
2021/03/30 12:25:54;;;;;;;2.55;0.90;;;;;;;;;;5071151;28;20433;-74
2021/03/30 12:28:20;;;;;;;2.15;1.10;;;;;;;;;;5064076;28;20017;-74
2021/03/30 12:30:45;;;;;;;1.38;1.00;;;;;;;;;;5068321;28;20021;-75
2021/03/30 12:33:10;;;;;;;2.10;0.90;;;;;;;;;;5057060;28;20021;-74
2021/03/30 12:35:38;;;;;;;5.80;1.00;;;;;;;;;;5059234;28;20017;-74
2021/03/30 12:38:05;;;;;;;2.05;1.05;;;;;;;;;;5065345;28;20112;-73
2021/03/30 12:40:30;;;;;;;2.17;1.00;;;;;;;;;;5057595;28;20438;-73
2021/03/30 12:42:56;;;;;;;2.27;1.00;;;;;;;;;;5059073;28;20116;-72
2021/03/30 12:45:23;;;;;;;2.50;1.10;;;;;;;;;;5066793;28;20103;-73
2021/03/30 12:47:51;;;;;;;5.88;1.00;;;;;;;;;;5075525;28;20707;-73
2021/03/30 12:50:16;;;;;;;7.22;1.10;;;;;;;;;;5076536;28;20575;-74
2021/03/30 12:52:41;;;;;;;2.70;1.40;;;;;;;;;;5076443;28;20024;-74
2021/03/30 12:55:08;;;;;;;2.97;1.00;;;;;;;;;;5076388;28;20166;-73
2021/03/30 12:57:34;;;;;;;1.58;1.00;;;;;;;;;;5076381;28;20512;-74
2021/03/30 12:59:59;;;;;;;2.72;0.90;;;;;;;;;;5076330;28;20024;-74
2021/03/30 13:02:25;;;;;;;2.47;1.33;;;;;;;;;;5076132;28;20017;-74
2021/03/30 13:04:50;;;;;;;2.20;1.30;;;;;;;;;;5076022;28;20024;-74
2021/03/30 13:07:18;;;;;;;4.13;1.37;;;;;;;;;;5076277;28;20354;-74
2021/03/30 13:09:44;;;;;;;6.00;1.40;;;;;;;;;;5075903;28;20052;-74
2021/03/30 13:12:09;;;;;;;2.20;1.27;;;;;;;;;;5075650;28;20087;-74
2021/03/30 13:14:34;;;;;;;4.38;1.30;;;;;;;;;;5075476;28;20287;-74
2021/03/30 13:16:59;;;;;;;3.30;1.27;;;;;;;;;;5078824;28;20024;-74
2021/03/30 13:19:27;;;;;;;1.80;1.23;;;;;;;;;;5081100;28;20038;-74
2021/03/30 13:21:52;;;;;;;4.25;1.55;;;;;;;;;;5084823;28;20029;-74
2021/03/30 13:24:17;;;;;;;2.87;1.40;;;;;;;;;;5083324;28;20077;-75
2021/03/30 13:26:43;;;;;;;2.78;1.20;;;;;;;;;;5086174;28;20024;-74
2021/03/30 13:29:08;;;;;;;2.83;1.10;;;;;;;;;;5082660;28;20050;-74
2021/03/30 13:31:33;;;;;;;2.63;1.30;;;;;;;;;;5079371;28;20342;-76
2021/03/30 13:33:58;;;;;;;3.70;1.42;;;;;;;;;;5072697;28;20024;-75
2021/03/30 13:36:24;;;;;;;2.80;1.20;;;;;;;;;;5068450;28;20108;-75
2021/03/30 13:38:53;;;;;;;2.30;1.27;;;;;;;;;;5080738;28;20034;-75
2021/03/30 13:41:20;;;;;;;4.20;1.55;;;;;;;;;;5074873;28;20063;-76
2021/03/30 13:43:45;;;;;;;5.38;1.33;;;;;;;;;;5076066;28;20387;-76
2021/03/30 13:46:10;;;;;;;2.78;1.48;;;;;;;;;;5075612;28;20021;-77
2021/03/30 13:48:39;;;;;;;3.72;1.38;;;;;;;;;;5079946;28;20073;-78
2021/03/30 13:51:07;;;;;;;3.08;1.30;;;;;;;;;;5086729;28;20480;-77
2021/03/30 13:53:33;;;;;;;4.50;1.60;;;;;;;;;;5082980;28;20028;-79
2021/03/30 13:56:00;;;;;;;2.58;1.52;;;;;;;;;;5091583;28;20038;-81
2021/03/30 13:58:25;;;;;;;4.78;1.45;;;;;;;;;;5062997;28;20011;-76
2021/03/30 14:00:51;;;;;;;2.73;1.30;;;;;;;;;;5077433;28;20024;-76
2021/03/30 14:03:16;;;;;;;3.00;1.30;;;;;;;;;;5075242;28;20040;-77
2021/03/30 14:05:41;;;;;;;3.37;1.30;;;;;;;;;;5075176;28;20354;-76
2021/03/30 14:08:09;;;;;;;2.80;1.20;;;;;;;;;;5067409;28;20579;-76
2021/03/30 14:10:36;;;;;;;4.13;1.30;;;;;;;;;;5068527;28;20040;-76
2021/03/30 14:21:08;;;;;;;4.80;1.40;;;;;;;;;;5088788;28;20021;-79
2021/03/30 14:23:55;;;;;;;4.05;1.45;;;;;;;;;;5081669;28;20097;-79
2021/03/30 14:26:24;;;;;;;3.25;1.23;;;;;;;;;;5074638;28;20033;-77
2021/03/30 14:28:53;;;;;;;4.88;1.10;;;;;;;;;;5082307;28;20009;-78
2021/03/30 14:31:22;;;;;;;6.60;1.63;;;;;;;;;;5077605;28;20031;-77
2021/03/30 14:33:47;;;;;;;3.83;1.30;;;;;;;;;;5076013;28;20089;-77
2021/03/30 14:36:13;;;;;;;5.00;1.35;;;;;;;;;;5079171;28;20016;-76
2021/03/30 14:38:39;;;;;;;3.75;1.40;;;;;;;;;;5070251;28;20021;-78
2021/03/30 14:41:04;;;;;;;4.15;1.05;;;;;;;;;;5068842;28;20024;-77
2021/03/30 14:43:41;;;;;;;1.50;1.10;;;;;;;;;;5073731;28;20046;-76
2021/03/30 14:54:10;;;;;;;1.65;1.00;;;;;;;;;;5074119;28;20028;-78
2021/03/30 14:56:51;;;;;;;4.00;1.30;;;;;;;;;;5071981;28;20024;-77
2021/03/30 14:59:20;;;;;;;3.10;1.30;;;;;;;;;;5074031;28;20111;-78
2021/03/30 15:04:32;;;;;;;4.07;1.40;;;;;;;;;;5073966;28;20031;-77
2021/03/30 15:06:58;;;;;;;6.57;1.20;;;;;;;;;;5073798;28;20020;-77
2021/03/30 15:09:23;;;;;;;3.87;1.40;;;;;;;;;;5072878;28;20544;-77
2021/03/30 15:11:48;;;;;;;2.63;1.27;;;;;;;;;;5073672;28;20048;-77